Time;durP1;ratioP1;P1;durP2;ratioP2;P2;SDS_P1;SDS_P2;PMS_P1;PMS_P2;Temp;Humidity;BMP_temperature;BMP_pressure;BME280_temperature;BME280_humidity;BME280_pressure;Samples;Min_cycle;Max_cycle;Signal;HPM_P1;HPM_P2
2024/01/28 00:01:36;;;;;;;59.33;38.83;;;;;;;15.70;52.54;103391.34;5055540;28;20052;-42
2024/01/28 00:04:03;;;;;;;60.35;38.58;;;;;;;15.69;52.78;103381.59;5040197;28;20057;-41
2024/01/28 00:06:30;;;;;;;58.40;37.75;;;;;;;15.67;52.08;103382.59;5051138;28;20060;-40
2024/01/28 00:08:57;;;;;;;58.10;38.15;;;;;;;15.66;51.52;103386.22;5051985;28;20059;-40
2024/01/28 00:11:23;;;;;;;60.63;38.85;;;;;;;15.63;51.50;103376.50;5046948;28;20811;-43
2024/01/28 00:13:50;;;;;;;57.13;36.28;;;;;;;15.61;52.35;103374.88;5050644;28;20377;-41
2024/01/28 00:16:17;;;;;;;53.08;34.22;;;;;;;15.59;52.49;103369.56;5048067;28;20049;-40
2024/01/28 00:18:44;;;;;;;58.42;36.75;;;;;;;15.58;52.39;103367.84;5049651;28;20056;-42
2024/01/28 00:21:11;;;;;;;58.40;36.80;;;;;;;15.57;51.79;103367.94;5051906;28;20049;-41
2024/01/28 00:23:38;;;;;;;55.75;35.72;;;;;;;15.55;52.48;103363.50;5043420;28;20071;-41
2024/01/28 00:26:05;;;;;;;54.50;35.47;;;;;;;15.53;52.72;103365.41;5046379;28;20102;-41
2024/01/28 00:28:31;;;;;;;55.53;36.10;;;;;;;15.53;52.08;103367.22;5038015;28;20056;-42
2024/01/28 00:30:58;;;;;;;55.47;35.90;;;;;;;15.50;51.86;103364.69;5023378;28;20080;-42
2024/01/28 00:33:25;;;;;;;57.95;35.22;;;;;;;15.49;52.70;103355.81;5044087;28;20420;-41
2024/01/28 00:35:51;;;;;;;54.83;34.55;;;;;;;15.47;52.65;103364.81;5047056;28;20147;-41
2024/01/28 00:38:18;;;;;;;55.33;35.33;;;;;;;15.46;52.23;103363.97;5044385;28;20076;-42
2024/01/28 00:40:44;;;;;;;51.35;34.33;;;;;;;15.45;52.65;103358.72;5043216;28;20316;-40
2024/01/28 00:43:11;;;;;;;50.90;33.20;;;;;;;15.44;52.90;103359.66;5043025;28;20045;-42
2024/01/28 00:45:39;;;;;;;52.45;33.88;;;;;;;15.42;52.63;103351.69;5041205;28;20061;-40
2024/01/28 00:48:06;;;;;;;49.97;33.28;;;;;;;15.41;51.80;103351.78;5045844;28;20045;-41
2024/01/28 00:50:33;;;;;;;49.88;33.10;;;;;;;15.41;52.15;103357.13;5044396;28;20685;-41
2024/01/28 00:52:59;;;;;;;51.25;33.35;;;;;;;15.39;51.90;103350.97;5041804;28;20049;-41
2024/01/28 00:55:26;;;;;;;51.28;31.73;;;;;;;15.38;52.02;103350.13;5024954;28;20439;-41
2024/01/28 00:57:53;;;;;;;53.60;34.17;;;;;;;15.36;51.71;103345.81;5037155;28;20059;-40
2024/01/28 01:00:20;;;;;;;50.72;31.73;;;;;;;15.36;51.88;103344.00;5040649;28;20049;-42
2024/01/28 01:02:46;;;;;;;53.13;33.70;;;;;;;15.36;52.44;103343.13;5044585;28;20052;-41
2024/01/28 01:05:13;;;;;;;48.58;31.13;;;;;;;15.33;52.30;103340.59;5040181;28;20094;-41
2024/01/28 01:07:39;;;;;;;49.70;30.65;;;;;;;15.31;53.14;103338.84;5031606;28;20439;-40
2024/01/28 01:10:08;;;;;;;47.20;30.25;;;;;;;15.30;51.97;103337.13;5038127;28;20052;-41
2024/01/28 01:12:35;;;;;;;40.78;28.77;;;;;;;15.30;51.96;103337.13;5040767;28;20054;-42
2024/01/28 01:15:03;;;;;;;47.97;30.58;;;;;;;15.29;52.56;103332.72;5033782;28;20107;-41
2024/01/28 01:17:29;;;;;;;45.08;29.20;;;;;;;15.28;51.99;103330.16;5039395;28;20152;-41
2024/01/28 01:19:56;;;;;;;45.13;29.50;;;;;;;15.28;51.94;103325.66;5038107;28;20050;-40
2024/01/28 01:22:23;;;;;;;48.95;29.30;;;;;;;15.27;51.99;103334.59;5036586;28;20049;-41
2024/01/28 01:24:49;;;;;;;46.72;29.73;;;;;;;15.25;52.36;103333.81;5036857;28;20057;-42
2024/01/28 01:27:16;;;;;;;46.70;28.98;;;;;;;15.24;52.44;103332.09;5032870;28;20560;-41
2024/01/28 01:29:43;;;;;;;44.72;28.52;;;;;;;15.24;52.11;103333.91;5021981;28;20057;-41
2024/01/28 01:32:10;;;;;;;39.05;25.60;;;;;;;15.22;52.62;103333.97;5037393;28;20057;-41
2024/01/28 01:34:37;;;;;;;42.95;26.45;;;;;;;15.21;52.62;103321.56;5034102;28;20063;-43
2024/01/28 01:37:04;;;;;;;39.88;26.33;;;;;;;15.20;51.86;103327.84;5039300;28;20044;-40
2024/01/28 01:39:31;;;;;;;42.40;28.23;;;;;;;15.19;52.64;103323.41;5035797;28;20053;-40
2024/01/28 01:41:57;;;;;;;37.90;25.30;;;;;;;15.19;51.70;103322.56;5038442;28;20045;-40
2024/01/28 01:44:25;;;;;;;39.88;25.75;;;;;;;15.18;52.31;103315.50;5044714;28;20057;-40
2024/01/28 01:46:51;;;;;;;40.08;25.98;;;;;;;15.17;51.94;103311.09;5044201;28;20140;-40
2024/01/28 01:49:18;;;;;;;41.15;26.27;;;;;;;15.16;52.58;103307.56;5043910;28;20053;-41
2024/01/28 01:51:45;;;;;;;36.00;23.58;;;;;;;15.14;51.79;103295.22;5038114;28;20046;-41
2024/01/28 01:54:12;;;;;;;37.58;24.42;;;;;;;15.13;51.67;103282.81;5042441;28;20343;-41
2024/01/28 01:56:39;;;;;;;36.45;23.58;;;;;;;15.12;51.90;103279.28;5037007;28;20440;-40
2024/01/28 01:59:05;;;;;;;37.70;24.25;;;;;;;15.11;52.15;103272.16;5037655;28;20091;-40
2024/01/28 02:01:34;;;;;;;37.22;23.77;;;;;;;15.11;52.49;103269.50;5038904;28;20340;-40
2024/01/28 02:04:01;;;;;;;34.42;22.90;;;;;;;15.08;51.62;103261.66;5034946;28;20348;-40
2024/01/28 02:06:28;;;;;;;33.22;21.10;;;;;;;15.08;52.59;103259.00;5040596;28;20056;-40
2024/01/28 02:08:55;;;;;;;36.83;22.73;;;;;;;15.06;51.79;103255.50;5039057;28;20132;-40
2024/01/28 02:11:22;;;;;;;35.38;22.23;;;;;;;15.04;51.50;103254.75;5036908;28;20049;-41
2024/01/28 02:13:49;;;;;;;37.42;22.88;;;;;;;15.03;51.58;103266.34;5040043;28;20440;-40
2024/01/28 02:16:16;;;;;;;33.05;21.42;;;;;;;15.01;51.53;103261.09;5036709;28;20420;-41
2024/01/28 02:18:42;;;;;;;33.63;20.13;;;;;;;15.02;51.39;103259.28;5037084;28;20061;-41
2024/01/28 02:21:09;;;;;;;32.97;21.05;;;;;;;14.99;51.85;103254.94;5043752;28;20052;-41
2024/01/28 02:23:36;;;;;;;32.08;21.02;;;;;;;14.98;51.71;103258.56;5015855;28;20462;-41
2024/01/28 02:26:03;;;;;;;30.65;19.75;;;;;;;14.98;52.21;103257.69;5041579;28;20111;-40
2024/01/28 02:28:29;;;;;;;33.67;20.65;;;;;;;14.96;51.95;103254.25;5041740;28;20057;-41
2024/01/28 02:30:56;;;;;;;29.73;18.90;;;;;;;14.95;51.25;103261.38;5038526;28;20049;-41
2024/01/28 02:33:23;;;;;;;30.33;18.58;;;;;;;14.95;51.84;103265.84;5040528;28;20714;-41
2024/01/28 02:35:49;;;;;;;30.23;20.55;;;;;;;14.94;51.55;103261.47;5037602;28;20087;-41
2024/01/28 02:38:16;;;;;;;31.23;18.58;;;;;;;14.93;51.62;103257.06;5039779;28;20044;-41
2024/01/28 02:40:43;;;;;;;26.95;17.67;;;;;;;14.92;51.61;103266.03;5037339;28;20057;-41
2024/01/28 02:43:10;;;;;;;29.48;18.30;;;;;;;14.91;51.71;103265.13;5038191;28;20053;-41
2024/01/28 02:45:36;;;;;;;28.92;17.48;;;;;;;14.90;51.50;103257.19;5041358;28;20355;-42
2024/01/28 02:48:03;;;;;;;28.27;17.67;;;;;;;14.89;51.47;103266.16;5036052;28;20053;-41
2024/01/28 02:50:30;;;;;;;27.33;16.90;;;;;;;14.88;52.06;103267.09;5037710;28;20080;-41
2024/01/28 02:52:57;;;;;;;28.92;18.20;;;;;;;14.87;51.90;103258.19;5037750;28;20106;-41
2024/01/28 02:55:24;;;;;;;26.95;17.08;;;;;;;14.87;51.49;103254.66;5035679;28;20359;-41
2024/01/28 02:57:50;;;;;;;26.02;17.52;;;;;;;14.87;51.96;103265.34;5037173;28;20462;-41
2024/01/28 03:00:17;;;;;;;25.98;16.77;;;;;;;14.85;51.13;103265.44;5039295;28;20053;-41
2024/01/28 03:02:44;;;;;;;25.63;16.33;;;;;;;14.86;51.96;103268.97;5036070;28;20049;-41
2024/01/28 03:05:11;;;;;;;25.45;16.40;;;;;;;14.83;51.90;103259.28;5038649;28;20045;-41
2024/01/28 03:07:38;;;;;;;23.25;15.18;;;;;;;14.83;51.15;103264.63;5038751;28;20049;-41
2024/01/28 03:10:05;;;;;;;22.85;14.77;;;;;;;14.83;51.96;103256.63;5032717;28;20131;-41
2024/01/28 03:12:32;;;;;;;25.63;15.70;;;;;;;14.80;51.97;103257.66;5037546;28;20659;-41
2024/01/28 03:14:59;;;;;;;24.10;15.88;;;;;;;14.80;51.82;103252.31;5036354;28;20338;-41
2024/01/28 03:17:25;;;;;;;23.13;15.07;;;;;;;14.79;51.07;103239.91;5037776;28;20393;-41
2024/01/28 03:19:52;;;;;;;23.30;14.77;;;;;;;14.79;51.62;103249.69;5038806;28;20056;-41
2024/01/28 03:22:19;;;;;;;22.05;13.98;;;;;;;14.78;51.07;103247.97;5037239;28;20049;-42
2024/01/28 03:24:47;;;;;;;21.35;14.52;;;;;;;14.77;51.48;103235.56;5036329;28;20128;-41
2024/01/28 03:27:14;;;;;;;22.65;14.80;;;;;;;14.75;51.94;103238.34;5036625;28;20073;-41
2024/01/28 03:29:42;;;;;;;21.80;14.73;;;;;;;14.75;52.04;103232.09;5033291;28;20053;-41
2024/01/28 03:32:09;;;;;;;21.13;13.82;;;;;;;14.74;51.50;103230.38;5038056;28;20131;-41
2024/01/28 03:34:35;;;;;;;21.83;12.98;;;;;;;14.74;51.42;103217.03;5037819;28;20120;-41
2024/01/28 03:37:03;;;;;;;21.27;13.75;;;;;;;14.73;51.52;103218.84;5036439;28;20103;-41
2024/01/28 03:39:30;;;;;;;20.52;12.70;;;;;;;14.71;51.73;103212.72;5042504;28;20049;-41
2024/01/28 03:41:56;;;;;;;20.23;13.55;;;;;;;14.70;50.89;103205.63;5041279;28;20052;-42
2024/01/28 03:44:23;;;;;;;18.50;12.95;;;;;;;14.67;51.56;103196.91;5041817;28;20053;-42
2024/01/28 03:46:51;;;;;;;18.73;12.90;;;;;;;14.66;51.58;103200.50;5037642;28;20052;-43
2024/01/28 03:49:18;;;;;;;19.83;12.32;;;;;;;14.64;51.61;103203.28;5041922;28;20045;-41
2024/01/28 03:51:45;;;;;;;19.10;12.20;;;;;;;14.64;51.39;103203.28;5041235;28;20510;-41
2024/01/28 03:54:11;;;;;;;22.63;12.82;;;;;;;14.63;50.67;103208.66;5042070;28;20076;-41
2024/01/28 03:56:40;;;;;;;18.38;12.40;;;;;;;14.61;51.01;103197.22;5040689;28;20123;-41
2024/01/28 03:59:06;;;;;;;19.55;12.48;;;;;;;14.60;50.70;103204.34;5042935;28;20411;-41
2024/01/28 04:01:34;;;;;;;21.67;12.35;;;;;;;14.60;51.15;103206.16;5041404;28;20485;-40
2024/01/28 04:04:01;;;;;;;18.42;12.05;;;;;;;14.58;50.97;103206.22;5042495;28;20054;-42
2024/01/28 04:06:28;;;;;;;18.52;12.02;;;;;;;14.57;51.43;103201.81;5041547;28;20111;-42
2024/01/28 04:08:55;;;;;;;19.27;11.35;;;;;;;14.57;50.83;103194.69;5043110;28;20053;-42
2024/01/28 04:11:26;;;;;;;19.88;11.50;;;;;;;14.55;50.56;103204.59;5040749;28;20053;-42
2024/01/28 04:13:56;;;;;;;17.73;11.48;;;;;;;14.54;51.45;103202.81;5035810;28;20049;-41
2024/01/28 04:16:23;;;;;;;17.30;10.95;;;;;;;14.54;50.65;103201.97;5043174;28;20049;-41
2024/01/28 04:18:50;;;;;;;16.77;10.45;;;;;;;14.52;50.68;103196.72;5040566;28;20494;-41
2024/01/28 04:21:17;;;;;;;16.83;10.65;;;;;;;14.51;50.73;103187.00;5042330;28;20054;-41
2024/01/28 04:23:46;;;;;;;18.73;9.65;;;;;;;14.51;51.13;103194.09;5041257;28;20530;-40
2024/01/28 04:26:13;;;;;;;17.27;10.77;;;;;;;14.50;50.64;103187.03;5036042;28;20045;-41
2024/01/28 04:28:41;;;;;;;16.17;9.63;;;;;;;14.49;51.03;103191.53;5040833;28;20149;-41
2024/01/28 04:31:08;;;;;;;16.10;9.80;;;;;;;14.48;51.19;103187.09;5025177;28;20059;-42
2024/01/28 04:33:35;;;;;;;15.82;9.30;;;;;;;14.47;50.29;103190.72;5041686;28;20062;-41
2024/01/28 04:36:02;;;;;;;15.98;9.80;;;;;;;14.46;51.28;103180.94;5044577;28;20041;-41
2024/01/28 04:38:28;;;;;;;17.60;10.88;;;;;;;14.46;50.63;103182.75;5040077;28;20053;-40
2024/01/28 04:40:55;;;;;;;14.80;9.07;;;;;;;14.45;50.23;103183.69;5042606;28;20684;-40
2024/01/28 04:43:22;;;;;;;15.25;9.10;;;;;;;14.44;50.42;103169.50;5040429;28;20489;-41
2024/01/28 04:45:48;;;;;;;15.70;9.60;;;;;;;14.44;50.87;103172.16;5039395;28;20060;-41
2024/01/28 04:48:15;;;;;;;15.45;9.77;;;;;;;14.43;50.58;103167.78;5040518;28;20053;-41
2024/01/28 04:50:42;;;;;;;13.95;9.32;;;;;;;14.42;50.44;103160.69;5042303;28;20359;-41
2024/01/28 04:53:09;;;;;;;13.15;8.60;;;;;;;14.42;50.53;103159.81;5044581;28;20056;-41
2024/01/28 04:55:35;;;;;;;13.00;8.43;;;;;;;14.41;50.86;103152.78;5041139;28;20772;-41
2024/01/28 04:58:02;;;;;;;14.25;8.63;;;;;;;14.41;51.16;103153.63;5042736;28;20470;-41
2024/01/28 05:00:29;;;;;;;12.25;8.70;;;;;;;14.41;50.33;103147.44;5035420;28;20053;-41
2024/01/28 05:02:56;;;;;;;13.73;8.75;;;;;;;14.40;51.15;103143.91;5038995;28;20492;-41
2024/01/28 05:05:23;;;;;;;13.50;8.15;;;;;;;14.41;51.16;103145.63;5041743;28;20138;-40
2024/01/28 05:07:50;;;;;;;13.88;8.77;;;;;;;14.41;50.68;103148.28;5042140;28;20337;-41
2024/01/28 05:10:17;;;;;;;15.13;8.35;;;;;;;14.40;50.62;103140.38;5041629;28;20045;-41
2024/01/28 05:12:47;;;;;;;15.10;9.02;;;;;;;14.41;50.52;103142.09;5039817;28;20087;-42
2024/01/28 05:15:16;;;;;;;14.13;8.65;;;;;;;14.39;51.10;103135.94;5040305;28;20131;-40
2024/01/28 05:17:44;;;;;;;13.50;8.05;;;;;;;14.39;50.39;103130.63;5041007;28;20257;-41
2024/01/28 05:20:12;;;;;;;12.95;7.78;;;;;;;14.39;51.04;103125.28;5041319;28;20059;-40
2024/01/28 05:22:38;;;;;;;11.80;7.57;;;;;;;14.39;50.64;103125.28;5041742;28;20053;-41
2024/01/28 05:25:05;;;;;;;12.90;7.47;;;;;;;14.37;50.94;103113.84;5039178;28;20081;-41
2024/01/28 05:27:33;;;;;;;15.07;8.05;;;;;;;14.37;50.41;103113.84;5041129;28;20077;-41
2024/01/28 05:29:59;;;;;;;13.23;8.38;;;;;;;14.36;50.48;103114.78;5034513;28;20427;-43
2024/01/28 05:32:26;;;;;;;12.98;7.65;;;;;;;14.36;50.51;103112.13;5041404;28;20177;-41
2024/01/28 05:34:57;;;;;;;13.05;8.10;;;;;;;14.32;50.55;103112.25;5041408;28;20312;-41
2024/01/28 05:37:23;;;;;;;11.90;7.35;;;;;;;14.32;50.24;103100.72;5037887;28;20045;-41
2024/01/28 05:39:50;;;;;;;16.25;7.50;;;;;;;14.30;50.74;103098.13;5041608;28;20133;-41
2024/01/28 05:42:17;;;;;;;11.43;7.25;;;;;;;14.29;50.79;103096.38;5041334;28;20053;-41
2024/01/28 05:44:43;;;;;;;10.60;7.00;;;;;;;14.28;50.56;103094.66;5035312;28;20530;-42
2024/01/28 05:47:10;;;;;;;12.93;7.38;;;;;;;14.28;50.47;103091.16;5042818;28;20041;-41
2024/01/28 05:49:37;;;;;;;10.48;6.47;;;;;;;14.27;50.24;103087.63;5042082;28;20428;-41
2024/01/28 05:52:05;;;;;;;11.18;6.53;;;;;;;14.27;50.67;103081.38;5038333;28;20636;-41
2024/01/28 05:54:32;;;;;;;9.90;6.28;;;;;;;14.26;50.18;103082.34;5041240;28;20103;-41
2024/01/28 05:57:00;;;;;;;12.02;6.82;;;;;;;14.25;50.13;103078.81;5039032;28;20444;-41
2024/01/28 05:59:26;;;;;;;14.70;7.25;;;;;;;14.24;50.81;103077.09;5039225;28;20084;-41
2024/01/28 06:01:53;;;;;;;10.02;6.38;;;;;;;14.23;49.94;103088.69;5038248;28;20448;-41
2024/01/28 06:04:21;;;;;;;9.40;6.28;;;;;;;14.23;50.67;103087.81;5040626;28;20132;-42
2024/01/28 06:06:48;;;;;;;10.13;6.68;;;;;;;14.21;49.96;103085.22;5035967;28;20057;-41
2024/01/28 06:09:14;;;;;;;14.15;6.70;;;;;;;14.20;50.23;103086.19;5038067;28;20048;-41
2024/01/28 06:11:43;;;;;;;10.65;6.57;;;;;;;14.19;50.69;103071.13;5037127;28;20053;-42
2024/01/28 06:14:11;;;;;;;13.50;6.47;;;;;;;14.19;50.82;103064.88;5038250;28;20053;-42
2024/01/28 06:16:37;;;;;;;10.07;6.85;;;;;;;14.18;50.71;103069.38;5038877;28;20403;-41
2024/01/28 06:19:04;;;;;;;10.18;6.32;;;;;;;14.17;50.25;103066.78;5039206;28;20057;-41
2024/01/28 06:21:31;;;;;;;9.13;6.53;;;;;;;14.17;49.93;103072.97;5038874;28;20707;-41
2024/01/28 06:23:58;;;;;;;11.05;5.55;;;;;;;14.17;50.77;103069.44;5038509;28;20057;-41
2024/01/28 06:26:24;;;;;;;10.50;6.60;;;;;;;14.17;50.15;103072.13;5034751;28;20128;-42
2024/01/28 06:28:51;;;;;;;9.77;5.78;;;;;;;14.16;50.53;103068.59;5037107;28;20087;-41
2024/01/28 06:31:19;;;;;;;11.48;6.25;;;;;;;14.15;50.45;103066.88;5039114;28;20045;-41
2024/01/28 06:33:46;;;;;;;8.15;5.88;;;;;;;14.14;50.16;103059.78;5034237;28;20049;-41
2024/01/28 06:36:22;;;;;;;9.68;5.50;;;;;;;14.14;50.10;103064.25;5038116;28;20045;-43
2024/01/28 06:38:49;;;;;;;9.65;5.90;;;;;;;14.13;50.61;103060.72;5039550;28;20052;-42
2024/01/28 06:41:16;;;;;;;9.20;5.70;;;;;;;14.15;50.63;103060.66;5037991;28;20115;-41
2024/01/28 06:43:43;;;;;;;8.70;5.65;;;;;;;14.14;49.65;103059.78;5035926;28;20410;-41
2024/01/28 06:46:11;;;;;;;8.98;5.47;;;;;;;14.22;50.10;103057.59;5039184;28;20045;-42
2024/01/28 06:48:38;;;;;;;9.40;5.60;;;;;;;14.31;49.65;103065.19;5036130;28;20045;-41
2024/01/28 06:51:05;;;;;;;7.93;5.05;;;;;;;14.40;49.61;103060.34;5035386;28;20093;-41
2024/01/28 06:53:32;;;;;;;9.43;5.63;;;;;;;14.50;49.97;103058.97;5039634;28;20049;-40
2024/01/28 06:55:59;;;;;;;10.02;5.47;;;;;;;14.59;49.32;103061.16;5035209;28;20180;-42
2024/01/28 06:58:26;;;;;;;8.55;5.07;;;;;;;14.68;49.35;103065.19;5033398;28;20045;-42
2024/01/28 07:00:53;;;;;;;8.68;5.13;;;;;;;14.75;49.14;103059.47;5037358;28;20057;-41
2024/01/28 07:03:20;;;;;;;7.68;5.45;;;;;;;14.80;48.66;103060.09;5039532;28;20045;-43
2024/01/28 07:05:47;;;;;;;10.85;4.97;;;;;;;14.87;49.17;103065.09;5039610;28;20053;-42
2024/01/28 07:08:13;;;;;;;7.72;5.22;;;;;;;14.92;48.43;103074.63;5035791;28;20132;-42
2024/01/28 07:10:40;;;;;;;7.88;4.80;;;;;;;14.97;48.57;103072.56;5044610;28;20049;-42
2024/01/28 07:13:08;;;;;;;7.82;5.15;;;;;;;15.01;48.98;103071.47;5042456;28;20135;-41
2024/01/28 07:15:36;;;;;;;8.52;5.35;;;;;;;15.05;48.93;103067.69;5038255;28;20348;-41
2024/01/28 07:18:03;;;;;;;7.63;5.10;;;;;;;15.09;47.91;103064.88;5046988;28;20125;-41
2024/01/28 07:20:31;;;;;;;7.10;4.72;;;;;;;15.10;48.63;103059.44;5042718;28;20053;-41
2024/01/28 07:22:58;;;;;;;7.82;4.78;;;;;;;15.12;48.23;103062.06;5040980;28;20076;-42
2024/01/28 07:25:24;;;;;;;7.28;4.90;;;;;;;15.13;48.53;103059.28;5048388;28;20328;-42
2024/01/28 07:27:52;;;;;;;6.28;4.32;;;;;;;15.13;48.26;103051.28;5046537;28;20044;-41
2024/01/28 07:30:19;;;;;;;7.57;4.40;;;;;;;15.15;47.50;103049.38;5039514;28;20055;-41
2024/01/28 07:32:45;;;;;;;7.10;4.43;;;;;;;15.16;48.23;103042.25;5046462;28;20088;-42
2024/01/28 07:35:13;;;;;;;8.50;4.90;;;;;;;15.16;47.34;103039.59;5046488;28;20059;-42
2024/01/28 07:37:39;;;;;;;10.10;4.93;;;;;;;15.16;47.64;103050.25;5049841;28;20106;-41
2024/01/28 07:40:07;;;;;;;7.78;4.68;;;;;;;15.13;47.80;103040.59;5045116;28;20089;-42
2024/01/28 07:42:33;;;;;;;7.72;4.60;;;;;;;15.10;47.27;103039.88;5045413;28;20124;-41
2024/01/28 07:45:00;;;;;;;8.45;4.32;;;;;;;15.06;47.42;103040.03;5044100;28;20458;-44
2024/01/28 07:47:27;;;;;;;8.90;4.35;;;;;;;15.01;48.20;103041.25;5044128;28;20146;-41
2024/01/28 07:49:53;;;;;;;7.05;4.28;;;;;;;14.95;47.51;103046.88;5047100;28;20057;-41
2024/01/28 07:52:20;;;;;;;5.88;4.10;;;;;;;14.89;47.38;103047.22;5044807;28;20045;-42
2024/01/28 07:54:47;;;;;;;9.18;4.82;;;;;;;14.82;48.62;103041.31;5041195;28;20085;-41
2024/01/28 07:57:13;;;;;;;6.43;4.47;;;;;;;14.73;48.38;103037.31;5044201;28;20057;-42
2024/01/28 07:59:40;;;;;;;6.95;4.03;;;;;;;14.68;48.46;103038.50;5042570;28;20133;-41
2024/01/28 08:02:07;;;;;;;5.60;3.70;;;;;;;14.59;49.13;103044.28;5045095;28;20049;-42
2024/01/28 08:04:34;;;;;;;6.18;4.22;;;;;;;14.51;48.87;103042.91;5044938;28;20060;-41
2024/01/28 08:07:00;;;;;;;6.38;3.97;;;;;;;14.47;49.68;103035.94;5044033;28;20131;-41
2024/01/28 08:09:31;;;;;;;7.40;4.07;;;;;;;14.43;49.20;103026.38;5044861;28;20083;-41
2024/01/28 08:11:58;;;;;;;5.93;4.03;;;;;;;14.40;49.66;103031.00;5041876;28;20170;-42
2024/01/28 08:14:27;;;;;;;7.13;4.63;;;;;;;14.41;49.62;103024.72;5038266;28;20080;-41
2024/01/28 08:16:54;;;;;;;6.00;3.83;;;;;;;14.50;49.18;103018.94;5042813;28;20080;-41
2024/01/28 08:19:21;;;;;;;6.90;4.35;;;;;;;14.62;49.56;103031.66;5042080;28;20045;-41
2024/01/28 08:21:48;;;;;;;6.25;3.97;;;;;;;14.73;50.02;103021.31;5042427;28;20068;-41
2024/01/28 08:24:15;;;;;;;8.75;4.00;;;;;;;14.88;49.12;103024.13;5042334;28;20049;-41
2024/01/28 08:26:42;;;;;;;6.28;3.85;;;;;;;14.98;50.08;103023.56;5039411;28;20045;-42
2024/01/28 08:29:08;;;;;;;7.43;4.07;;;;;;;15.08;49.58;103018.63;5043334;28;20056;-42
2024/01/28 08:31:35;;;;;;;6.53;4.18;;;;;;;15.19;49.73;103018.03;5042409;28;20079;-41
2024/01/28 08:34:02;;;;;;;6.97;3.80;;;;;;;15.27;49.61;103015.81;5039886;28;20052;-41
2024/01/28 08:36:29;;;;;;;7.85;4.32;;;;;;;15.36;49.14;103020.69;5041704;28;20080;-43
2024/01/28 08:38:55;;;;;;;6.70;4.35;;;;;;;15.43;49.23;103021.19;5039122;28;20500;-42
2024/01/28 08:41:22;;;;;;;5.47;3.75;;;;;;;15.49;49.73;103018.19;5041753;28;20053;-42
2024/01/28 08:43:48;;;;;;;7.40;4.07;;;;;;;15.55;48.69;103016.03;5039905;28;20697;-41
2024/01/28 08:46:16;;;;;;;6.22;4.18;;;;;;;15.61;49.05;103004.16;5039804;28;20336;-41
2024/01/28 08:48:42;;;;;;;6.20;3.70;;;;;;;15.67;48.74;103009.19;5043934;28;20128;-42
2024/01/28 08:51:09;;;;;;;5.50;3.72;;;;;;;15.73;49.22;103006.19;5040763;28;20057;-42
2024/01/28 08:53:36;;;;;;;6.70;3.65;;;;;;;15.78;49.05;102992.53;5038552;28;20048;-42
2024/01/28 08:56:03;;;;;;;5.82;3.55;;;;;;;15.83;49.33;103000.31;5044234;28;20057;-41
2024/01/28 08:58:35;;;;;;;5.85;3.78;;;;;;;15.88;48.35;102995.56;5046209;28;20511;-41
2024/01/28 09:01:02;;;;;;;7.60;3.55;;;;;;;15.92;49.07;102997.09;5042492;28;20519;-42
2024/01/28 09:03:29;;;;;;;5.75;3.72;;;;;;;15.96;49.28;102993.31;5045266;28;20048;-42
2024/01/28 09:05:56;;;;;;;8.88;3.78;;;;;;;16.01;48.51;102997.47;5046974;28;20153;-44
2024/01/28 09:08:23;;;;;;;5.28;3.67;;;;;;;16.04;48.79;102997.28;5046496;28;20387;-42
2024/01/28 09:10:49;;;;;;;6.45;3.90;;;;;;;16.07;48.63;102990.88;5036701;28;20132;-41
2024/01/28 09:13:16;;;;;;;6.43;3.13;;;;;;;16.10;47.90;102989.84;5041819;28;20415;-41
2024/01/28 09:15:42;;;;;;;5.20;3.50;;;;;;;16.14;48.50;102994.94;5025471;28;20103;-43
2024/01/28 09:18:09;;;;;;;5.10;3.42;;;;;;;16.17;48.47;102988.56;5038922;28;20072;-42
2024/01/28 09:20:36;;;;;;;6.68;3.50;;;;;;;16.17;47.61;102988.56;5051414;28;20057;-43
2024/01/28 09:23:04;;;;;;;7.47;4.22;;;;;;;16.19;47.94;102981.28;5022081;28;20055;-42
2024/01/28 09:25:32;;;;;;;6.82;3.75;;;;;;;16.20;48.36;102981.22;5045279;28;20081;-43
2024/01/28 09:28:00;;;;;;;7.07;3.80;;;;;;;16.22;47.87;102975.75;5041366;28;20053;-41
2024/01/28 09:30:27;;;;;;;5.95;3.33;;;;;;;16.23;47.90;102982.81;5039811;28;20061;-41
2024/01/28 09:32:54;;;;;;;6.97;3.72;;;;;;;16.24;48.20;102984.53;5044769;28;20094;-43
2024/01/28 09:35:21;;;;;;;5.05;3.13;;;;;;;16.24;48.54;102971.16;5041890;28;20038;-42
2024/01/28 09:37:48;;;;;;;5.57;3.40;;;;;;;16.25;48.08;102973.78;5039971;28;20049;-40
2024/01/28 09:40:14;;;;;;;6.82;3.58;;;;;;;16.28;48.40;102972.72;5039124;28;20058;-40
2024/01/28 09:42:52;;;;;;;6.30;3.72;;;;;;;16.29;47.92;102971.78;5041425;28;20439;-41
2024/01/28 09:45:19;;;;;;;4.82;3.38;;;;;;;16.33;48.06;102980.50;5041653;28;20045;-43
2024/01/28 09:47:47;;;;;;;5.32;3.35;;;;;;;16.37;47.61;102971.34;5038772;28;20345;-41
2024/01/28 09:50:14;;;;;;;7.28;3.47;;;;;;;16.38;47.63;102979.25;5039818;28;20352;-40
2024/01/28 09:52:41;;;;;;;6.55;3.33;;;;;;;16.42;48.28;102971.91;5041069;28;20059;-41
2024/01/28 09:55:08;;;;;;;4.72;3.38;;;;;;;16.46;48.43;102962.75;5040936;28;20055;-40
2024/01/28 09:57:35;;;;;;;5.75;3.20;;;;;;;16.49;47.23;102959.91;5035748;28;20115;-40
2024/01/28 10:00:04;;;;;;;6.32;3.88;;;;;;;16.53;48.16;102964.97;5039344;28;20041;-41
2024/01/28 10:02:31;;;;;;;6.25;3.58;;;;;;;16.57;47.38;102949.59;5026499;28;20057;-41
2024/01/28 10:04:58;;;;;;;5.95;2.92;;;;;;;16.63;48.01;102951.03;5039820;28;20045;-40
2024/01/28 10:07:25;;;;;;;4.00;2.90;;;;;;;16.68;48.01;102946.25;5038216;28;20704;-42
2024/01/28 10:09:51;;;;;;;5.25;3.58;;;;;;;16.72;48.21;102937.97;5039605;28;20099;-40
2024/01/28 10:12:18;;;;;;;5.75;3.15;;;;;;;16.77;47.63;102943.91;5034618;28;20049;-41
2024/01/28 10:14:51;;;;;;;6.95;2.67;;;;;;;16.81;48.36;102939.22;5037555;28;20053;-40
2024/01/28 10:17:21;;;;;;;5.65;3.25;;;;;;;16.85;47.98;102932.72;5035903;28;20443;-40
2024/01/28 10:19:48;;;;;;;6.40;3.20;;;;;;;16.89;47.87;102928.91;5041953;28;20057;-40
2024/01/28 10:22:14;;;;;;;6.00;3.08;;;;;;;16.92;48.02;102925.16;5036869;28;20053;-40
2024/01/28 10:24:42;;;;;;;4.95;2.95;;;;;;;16.97;48.10;102933.78;5037668;28;20138;-41
2024/01/28 10:27:09;;;;;;;6.40;2.88;;;;;;;17.00;47.68;102930.91;5035755;28;20064;-40
2024/01/28 10:29:37;;;;;;;4.75;2.65;;;;;;;17.03;47.56;102928.03;5037511;28;20076;-40
2024/01/28 10:32:04;;;;;;;3.97;2.90;;;;;;;17.07;47.76;102934.91;5037028;28;20152;-40
2024/01/28 10:34:30;;;;;;;4.97;3.00;;;;;;;17.10;47.27;102937.41;5037135;28;20382;-40
2024/01/28 10:36:59;;;;;;;5.18;2.75;;;;;;;17.14;47.38;102938.09;5037811;28;20057;-40
2024/01/28 10:39:32;;;;;;;4.38;3.25;;;;;;;17.17;47.91;102936.09;5037345;28;20410;-40
2024/01/28 10:42:03;;;;;;;4.03;2.83;;;;;;;17.20;47.88;102929.66;5034279;28;20059;-39
2024/01/28 10:44:37;;;;;;;4.28;2.78;;;;;;;17.22;47.91;102928.59;5039935;28;20053;-40
2024/01/28 10:47:08;;;;;;;;;;;;;;;17.24;47.34;102932.03;5038702;28;20083;-41
2024/01/28 10:49:37;;;;;;;4.53;2.70;;;;;;;17.32;47.10;102922.66;5038408;28;19929;-40
2024/01/28 10:52:06;;;;;;;5.20;2.83;;;;;;;17.33;46.94;102924.38;5038921;28;20085;-38
2024/01/28 10:54:33;;;;;;;5.95;2.55;;;;;;;17.36;47.30;102918.81;5036543;28;20361;-39
2024/01/28 10:57:04;;;;;;;4.03;2.67;;;;;;;17.36;47.20;102910.75;5039259;28;20519;-40
2024/01/28 10:59:36;;;;;;;4.50;2.60;;;;;;;17.38;47.04;102908.88;5037104;28;20064;-40
2024/01/28 11:02:04;;;;;;;3.30;2.28;;;;;;;17.40;46.90;102910.47;5029594;28;20135;-39
2024/01/28 11:04:33;;;;;;;4.28;2.83;;;;;;;17.41;47.04;102906.00;5038129;28;20057;-39
2024/01/28 11:07:01;;;;;;;5.32;2.55;;;;;;;17.43;46.79;102901.38;5035698;28;20375;-40
2024/01/28 11:09:28;;;;;;;3.42;2.47;;;;;;;17.45;47.03;102904.84;5038084;28;20064;-40
2024/01/28 11:11:55;;;;;;;4.22;2.70;;;;;;;17.47;47.35;102897.53;5038484;28;20144;-39
2024/01/28 11:14:24;;;;;;;4.30;2.78;;;;;;;17.47;46.52;102892.19;5040136;28;20081;-40
2024/01/28 11:16:51;;;;;;;4.90;2.85;;;;;;;17.49;46.55;102892.94;5038854;28;20085;-39